sensor_id;sensor_type;location;lat;lon;timestamp;temperature;humidity
24618;DHT22;12762;51.730;5.356;2023-04-15T00:01:38;9.50;59.70
24618;DHT22;12762;51.730;5.356;2023-04-15T00:04:05;9.50;59.70
24618;DHT22;12762;51.730;5.356;2023-04-15T00:06:32;9.40;59.70
24618;DHT22;12762;51.730;5.356;2023-04-15T00:08:59;9.40;59.70
24618;DHT22;12762;51.730;5.356;2023-04-15T00:11:26;9.30;59.70
24618;DHT22;12762;51.730;5.356;2023-04-15T00:13:53;9.30;59.90
24618;DHT22;12762;51.730;5.356;2023-04-15T00:16:23;9.30;59.90
24618;DHT22;12762;51.730;5.356;2023-04-15T00:18:49;9.30;60.00
24618;DHT22;12762;51.730;5.356;2023-04-15T00:21:17;9.20;60.00
24618;DHT22;12762;51.730;5.356;2023-04-15T00:23:44;9.20;60.00
24618;DHT22;12762;51.730;5.356;2023-04-15T00:26:15;9.20;60.10
24618;DHT22;12762;51.730;5.356;2023-04-15T00:28:42;9.10;60.00
24618;DHT22;12762;51.730;5.356;2023-04-15T00:31:09;9.10;60.10
24618;DHT22;12762;51.730;5.356;2023-04-15T00:33:36;9.10;60.10
24618;DHT22;12762;51.730;5.356;2023-04-15T00:36:05;9.10;60.10
24618;DHT22;12762;51.730;5.356;2023-04-15T00:38:31;9.10;60.20
24618;DHT22;12762;51.730;5.356;2023-04-15T00:40:58;9.00;60.20
24618;DHT22;12762;51.730;5.356;2023-04-15T00:43:25;9.00;60.20
24618;DHT22;12762;51.730;5.356;2023-04-15T00:45:53;9.00;60.30
24618;DHT22;12762;51.730;5.356;2023-04-15T00:48:23;9.00;60.40
24618;DHT22;12762;51.730;5.356;2023-04-15T00:50:50;9.00;60.40
24618;DHT22;12762;51.730;5.356;2023-04-15T00:53:17;8.90;60.40
24618;DHT22;12762;51.730;5.356;2023-04-15T00:55:44;9.00;60.50
24618;DHT22;12762;51.730;5.356;2023-04-15T00:58:11;8.90;60.50
24618;DHT22;12762;51.730;5.356;2023-04-15T01:00:37;8.90;60.50
24618;DHT22;12762;51.730;5.356;2023-04-15T01:03:04;8.90;60.60
24618;DHT22;12762;51.730;5.356;2023-04-15T01:05:32;8.80;60.60
24618;DHT22;12762;51.730;5.356;2023-04-15T01:07:59;8.80;60.70
24618;DHT22;12762;51.730;5.356;2023-04-15T01:10:26;8.80;60.70
24618;DHT22;12762;51.730;5.356;2023-04-15T01:12:54;8.80;60.90
24618;DHT22;12762;51.730;5.356;2023-04-15T01:15:23;8.70;60.90
24618;DHT22;12762;51.730;5.356;2023-04-15T01:17:50;8.70;60.90
24618;DHT22;12762;51.730;5.356;2023-04-15T01:20:17;8.70;61.00
24618;DHT22;12762;51.730;5.356;2023-04-15T01:22:48;8.60;60.90
24618;DHT22;12762;51.730;5.356;2023-04-15T01:25:24;8.60;61.10
24618;DHT22;12762;51.730;5.356;2023-04-15T01:27:53;8.60;61.20
24618;DHT22;12762;51.730;5.356;2023-04-15T01:30:20;8.50;61.20
24618;DHT22;12762;51.730;5.356;2023-04-15T01:32:47;8.50;61.30
24618;DHT22;12762;51.730;5.356;2023-04-15T01:35:17;8.40;61.30
24618;DHT22;12762;51.730;5.356;2023-04-15T01:37:44;8.40;61.40
24618;DHT22;12762;51.730;5.356;2023-04-15T01:40:11;8.30;61.50
24618;DHT22;12762;51.730;5.356;2023-04-15T01:42:39;8.30;61.60
24618;DHT22;12762;51.730;5.356;2023-04-15T01:45:07;8.20;61.60
24618;DHT22;12762;51.730;5.356;2023-04-15T01:47:34;8.20;61.70
24618;DHT22;12762;51.730;5.356;2023-04-15T01:50:04;8.10;61.80
24618;DHT22;12762;51.730;5.356;2023-04-15T01:52:31;8.10;62.00
24618;DHT22;12762;51.730;5.356;2023-04-15T01:54:57;8.00;62.90
24618;DHT22;12762;51.730;5.356;2023-04-15T01:57:24;8.00;62.20
24618;DHT22;12762;51.730;5.356;2023-04-15T01:59:54;7.90;62.30
24618;DHT22;12762;51.730;5.356;2023-04-15T02:02:21;7.90;62.30
24618;DHT22;12762;51.730;5.356;2023-04-15T02:04:48;7.80;62.40
24618;DHT22;12762;51.730;5.356;2023-04-15T02:07:15;7.70;62.40
24618;DHT22;12762;51.730;5.356;2023-04-15T02:09:43;7.70;62.60
24618;DHT22;12762;51.730;5.356;2023-04-15T02:12:11;7.60;62.60
24618;DHT22;12762;51.730;5.356;2023-04-15T02:14:39;7.50;62.70
24618;DHT22;12762;51.730;5.356;2023-04-15T02:17:05;7.50;62.90
24618;DHT22;12762;51.730;5.356;2023-04-15T02:19:34;7.40;63.00
24618;DHT22;12762;51.730;5.356;2023-04-15T02:22:01;7.40;64.00
24618;DHT22;12762;51.730;5.356;2023-04-15T02:24:32;7.40;63.30
24618;DHT22;12762;51.730;5.356;2023-04-15T02:27:04;7.30;63.40
24618;DHT22;12762;51.730;5.356;2023-04-15T02:29:31;7.30;63.60
24618;DHT22;12762;51.730;5.356;2023-04-15T02:32:01;7.30;63.60
24618;DHT22;12762;51.730;5.356;2023-04-15T02:34:28;7.30;63.70
24618;DHT22;12762;51.730;5.356;2023-04-15T02:36:58;7.20;63.60
24618;DHT22;12762;51.730;5.356;2023-04-15T02:39:27;7.20;63.90
24618;DHT22;12762;51.730;5.356;2023-04-15T02:41:54;7.20;63.90
24618;DHT22;12762;51.730;5.356;2023-04-15T02:44:20;7.20;64.80
24618;DHT22;12762;51.730;5.356;2023-04-15T02:46:49;7.20;64.10
24618;DHT22;12762;51.730;5.356;2023-04-15T02:49:18;7.20;64.20
24618;DHT22;12762;51.730;5.356;2023-04-15T02:51:45;7.10;64.20
24618;DHT22;12762;51.730;5.356;2023-04-15T02:54:16;7.10;64.30
24618;DHT22;12762;51.730;5.356;2023-04-15T02:56:44;7.10;64.40
24618;DHT22;12762;51.730;5.356;2023-04-15T02:59:14;7.10;64.40
24618;DHT22;12762;51.730;5.356;2023-04-15T03:01:40;7.10;64.60
24618;DHT22;12762;51.730;5.356;2023-04-15T03:04:08;7.00;64.50
24618;DHT22;12762;51.730;5.356;2023-04-15T03:06:35;7.00;64.60
24618;DHT22;12762;51.730;5.356;2023-04-15T03:09:02;7.00;64.70
24618;DHT22;12762;51.730;5.356;2023-04-15T03:11:29;7.00;64.80
24618;DHT22;12762;51.730;5.356;2023-04-15T03:13:57;7.00;64.90
24618;DHT22;12762;51.730;5.356;2023-04-15T03:16:24;7.00;64.90
24618;DHT22;12762;51.730;5.356;2023-04-15T03:18:51;6.90;64.90
24618;DHT22;12762;51.730;5.356;2023-04-15T03:21:18;6.90;65.10
24618;DHT22;12762;51.730;5.356;2023-04-15T03:23:47;6.90;65.10
24618;DHT22;12762;51.730;5.356;2023-04-15T03:26:28;6.90;65.20
24618;DHT22;12762;51.730;5.356;2023-04-15T03:28:59;6.90;65.30
24618;DHT22;12762;51.730;5.356;2023-04-15T03:31:27;6.80;65.30
24618;DHT22;12762;51.730;5.356;2023-04-15T03:33:56;6.90;65.30
24618;DHT22;12762;51.730;5.356;2023-04-15T03:36:23;6.80;65.30
24618;DHT22;12762;51.730;5.356;2023-04-15T03:38:50;6.80;65.30
24618;DHT22;12762;51.730;5.356;2023-04-15T03:41:16;6.80;65.40
24618;DHT22;12762;51.730;5.356;2023-04-15T03:43:43;6.80;65.50
24618;DHT22;12762;51.730;5.356;2023-04-15T03:46:13;6.80;65.60
24618;DHT22;12762;51.730;5.356;2023-04-15T03:48:40;6.80;65.60
24618;DHT22;12762;51.730;5.356;2023-04-15T03:51:07;6.80;65.70
24618;DHT22;12762;51.730;5.356;2023-04-15T03:53:34;6.80;65.80
24618;DHT22;12762;51.730;5.356;2023-04-15T03:56:01;6.80;65.80
24618;DHT22;12762;51.730;5.356;2023-04-15T03:58:28;6.80;65.90
24618;DHT22;12762;51.730;5.356;2023-04-15T04:00:54;6.70;65.90
24618;DHT22;12762;51.730;5.356;2023-04-15T04:03:21;6.70;66.00
24618;DHT22;12762;51.730;5.356;2023-04-15T04:05:54;6.70;66.00
24618;DHT22;12762;51.730;5.356;2023-04-15T04:08:21;6.70;66.20
24618;DHT22;12762;51.730;5.356;2023-04-15T04:10:51;6.70;66.20
24618;DHT22;12762;51.730;5.356;2023-04-15T04:13:18;6.60;66.10
24618;DHT22;12762;51.730;5.356;2023-04-15T04:15:45;6.60;66.30
24618;DHT22;12762;51.730;5.356;2023-04-15T04:18:13;6.60;66.30
24618;DHT22;12762;51.730;5.356;2023-04-15T04:20:40;6.60;66.40
24618;DHT22;12762;51.730;5.356;2023-04-15T04:23:07;6.60;66.50
24618;DHT22;12762;51.730;5.356;2023-04-15T04:25:37;6.60;66.60
24618;DHT22;12762;51.730;5.356;2023-04-15T04:28:04;6.60;66.70
24618;DHT22;12762;51.730;5.356;2023-04-15T04:30:31;6.50;66.60
24618;DHT22;12762;51.730;5.356;2023-04-15T04:32:58;6.50;66.70
24618;DHT22;12762;51.730;5.356;2023-04-15T04:35:26;6.50;66.70
24618;DHT22;12762;51.730;5.356;2023-04-15T04:37:56;6.50;66.80
24618;DHT22;12762;51.730;5.356;2023-04-15T04:40:22;6.50;66.90
24618;DHT22;12762;51.730;5.356;2023-04-15T04:42:49;6.50;67.00
24618;DHT22;12762;51.730;5.356;2023-04-15T04:45:16;6.50;67.00
24618;DHT22;12762;51.730;5.356;2023-04-15T04:47:43;6.50;67.10
24618;DHT22;12762;51.730;5.356;2023-04-15T04:50:10;6.50;67.20
24618;DHT22;12762;51.730;5.356;2023-04-15T04:52:37;6.50;67.30
24618;DHT22;12762;51.730;5.356;2023-04-15T04:55:05;6.50;67.40
24618;DHT22;12762;51.730;5.356;2023-04-15T04:57:32;6.50;67.40
24618;DHT22;12762;51.730;5.356;2023-04-15T05:00:01;6.50;67.50
24618;DHT22;12762;51.730;5.356;2023-04-15T05:02:30;6.50;67.50
24618;DHT22;12762;51.730;5.356;2023-04-15T05:04:58;6.40;67.50
24618;DHT22;12762;51.730;5.356;2023-04-15T05:07:25;6.40;67.60
24618;DHT22;12762;51.730;5.356;2023-04-15T05:09:52;6.40;67.60
24618;DHT22;12762;51.730;5.356;2023-04-15T05:12:18;6.40;67.70
24618;DHT22;12762;51.730;5.356;2023-04-15T05:14:45;6.40;67.80
24618;DHT22;12762;51.730;5.356;2023-04-15T05:17:13;6.50;67.90
24618;DHT22;12762;51.730;5.356;2023-04-15T05:19:40;6.50;68.00
24618;DHT22;12762;51.730;5.356;2023-04-15T05:22:07;6.50;68.00
24618;DHT22;12762;51.730;5.356;2023-04-15T05:24:34;6.50;68.00
24618;DHT22;12762;51.730;5.356;2023-04-15T05:27:01;6.50;68.10
24618;DHT22;12762;51.730;5.356;2023-04-15T05:29:28;6.50;68.10
24618;DHT22;12762;51.730;5.356;2023-04-15T05:31:55;6.50;68.10
24618;DHT22;12762;51.730;5.356;2023-04-15T05:34:22;6.50;68.20
24618;DHT22;12762;51.730;5.356;2023-04-15T05:36:49;6.50;68.20
24618;DHT22;12762;51.730;5.356;2023-04-15T05:39:16;6.50;68.20
24618;DHT22;12762;51.730;5.356;2023-04-15T05:41:46;6.50;68.40
24618;DHT22;12762;51.730;5.356;2023-04-15T05:44:13;6.50;69.20
24618;DHT22;12762;51.730;5.356;2023-04-15T05:46:40;6.60;68.50
24618;DHT22;12762;51.730;5.356;2023-04-15T05:49:07;6.60;68.60
24618;DHT22;12762;51.730;5.356;2023-04-15T05:51:34;6.60;68.70
24618;DHT22;12762;51.730;5.356;2023-04-15T05:54:01;6.60;68.70
24618;DHT22;12762;51.730;5.356;2023-04-15T05:56:28;6.60;68.80
24618;DHT22;12762;51.730;5.356;2023-04-15T05:58:55;6.60;68.80
24618;DHT22;12762;51.730;5.356;2023-04-15T06:01:22;6.70;68.90
24618;DHT22;12762;51.730;5.356;2023-04-15T06:03:49;6.70;69.00
24618;DHT22;12762;51.730;5.356;2023-04-15T06:06:17;6.70;69.00
24618;DHT22;12762;51.730;5.356;2023-04-15T06:08:43;6.80;69.10
24618;DHT22;12762;51.730;5.356;2023-04-15T06:11:10;6.80;69.10
24618;DHT22;12762;51.730;5.356;2023-04-15T06:13:37;6.90;69.30
24618;DHT22;12762;51.730;5.356;2023-04-15T06:16:04;6.90;69.30
24618;DHT22;12762;51.730;5.356;2023-04-15T06:18:31;6.90;69.30
24618;DHT22;12762;51.730;5.356;2023-04-15T06:20:58;7.00;69.50
24618;DHT22;12762;51.730;5.356;2023-04-15T06:23:25;7.00;69.60
24618;DHT22;12762;51.730;5.356;2023-04-15T06:25:53;7.10;69.70
24618;DHT22;12762;51.730;5.356;2023-04-15T06:28:20;7.20;69.70
24618;DHT22;12762;51.730;5.356;2023-04-15T06:30:47;7.20;69.70
24618;DHT22;12762;51.730;5.356;2023-04-15T06:33:14;7.30;69.80
24618;DHT22;12762;51.730;5.356;2023-04-15T06:35:41;7.30;69.80
24618;DHT22;12762;51.730;5.356;2023-04-15T06:38:08;7.40;70.00
24618;DHT22;12762;51.730;5.356;2023-04-15T06:40:37;7.50;70.00
24618;DHT22;12762;51.730;5.356;2023-04-15T06:43:05;7.50;70.00
24618;DHT22;12762;51.730;5.356;2023-04-15T06:45:31;7.60;70.10
24618;DHT22;12762;51.730;5.356;2023-04-15T06:47:58;7.70;70.10
24618;DHT22;12762;51.730;5.356;2023-04-15T06:50:25;7.70;70.10
24618;DHT22;12762;51.730;5.356;2023-04-15T06:52:54;7.80;70.20
24618;DHT22;12762;51.730;5.356;2023-04-15T06:55:21;7.90;70.20
24618;DHT22;12762;51.730;5.356;2023-04-15T06:57:48;8.00;70.30
24618;DHT22;12762;51.730;5.356;2023-04-15T07:00:15;8.00;70.30
24618;DHT22;12762;51.730;5.356;2023-04-15T07:02:43;8.10;70.40
24618;DHT22;12762;51.730;5.356;2023-04-15T07:05:10;8.20;70.50
24618;DHT22;12762;51.730;5.356;2023-04-15T07:07:38;8.20;70.50
24618;DHT22;12762;51.730;5.356;2023-04-15T07:10:08;8.30;70.60
24618;DHT22;12762;51.730;5.356;2023-04-15T07:12:35;8.40;70.70
24618;DHT22;12762;51.730;5.356;2023-04-15T07:15:03;8.40;70.70
24618;DHT22;12762;51.730;5.356;2023-04-15T07:17:30;8.50;70.80
24618;DHT22;12762;51.730;5.356;2023-04-15T07:19:57;8.60;70.90
24618;DHT22;12762;51.730;5.356;2023-04-15T07:22:24;8.70;70.90
24618;DHT22;12762;51.730;5.356;2023-04-15T07:24:51;8.80;71.00
24618;DHT22;12762;51.730;5.356;2023-04-15T07:27:18;9.00;71.60
24618;DHT22;12762;51.730;5.356;2023-04-15T07:29:45;10.00;72.10
24618;DHT22;12762;51.730;5.356;2023-04-15T07:32:12;11.20;72.40
24618;DHT22;12762;51.730;5.356;2023-04-15T07:34:39;12.40;71.50
24618;DHT22;12762;51.730;5.356;2023-04-15T07:37:07;13.60;70.20
24618;DHT22;12762;51.730;5.356;2023-04-15T07:39:34;14.60;68.70
24618;DHT22;12762;51.730;5.356;2023-04-15T07:42:00;15.60;67.30
24618;DHT22;12762;51.730;5.356;2023-04-15T07:44:28;16.50;65.90
24618;DHT22;12762;51.730;5.356;2023-04-15T07:46:55;17.20;64.30
24618;DHT22;12762;51.730;5.356;2023-04-15T07:49:25;17.90;63.00
24618;DHT22;12762;51.730;5.356;2023-04-15T07:51:52;18.50;61.90
24618;DHT22;12762;51.730;5.356;2023-04-15T07:54:19;18.90;60.80
24618;DHT22;12762;51.730;5.356;2023-04-15T07:56:46;19.10;59.60
24618;DHT22;12762;51.730;5.356;2023-04-15T07:59:14;19.20;59.00
24618;DHT22;12762;51.730;5.356;2023-04-15T08:01:43;19.30;58.70
24618;DHT22;12762;51.730;5.356;2023-04-15T08:04:10;19.40;58.60
24618;DHT22;12762;51.730;5.356;2023-04-15T08:06:37;19.50;58.50
24618;DHT22;12762;51.730;5.356;2023-04-15T08:09:05;19.70;58.40
24618;DHT22;12762;51.730;5.356;2023-04-15T08:11:32;19.70;58.00
24618;DHT22;12762;51.730;5.356;2023-04-15T08:13:59;19.60;57.80
24618;DHT22;12762;51.730;5.356;2023-04-15T08:16:27;19.60;57.90
24618;DHT22;12762;51.730;5.356;2023-04-15T08:18:55;19.50;57.70
24618;DHT22;12762;51.730;5.356;2023-04-15T08:21:22;19.50;57.80
24618;DHT22;12762;51.730;5.356;2023-04-15T08:23:50;19.50;57.70
24618;DHT22;12762;51.730;5.356;2023-04-15T08:26:19;19.50;57.50
24618;DHT22;12762;51.730;5.356;2023-04-15T08:28:47;19.40;57.40
24618;DHT22;12762;51.730;5.356;2023-04-15T08:31:15;19.30;57.50
24618;DHT22;12762;51.730;5.356;2023-04-15T08:33:43;19.20;57.20
24618;DHT22;12762;51.730;5.356;2023-04-15T08:36:10;19.10;57.30
24618;DHT22;12762;51.730;5.356;2023-04-15T08:38:37;19.10;57.50
24618;DHT22;12762;51.730;5.356;2023-04-15T08:41:09;19.10;57.70
24618;DHT22;12762;51.730;5.356;2023-04-15T08:43:46;19.20;57.20
24618;DHT22;12762;51.730;5.356;2023-04-15T08:46:15;19.20;56.70
24618;DHT22;12762;51.730;5.356;2023-04-15T08:48:43;19.20;57.10
24618;DHT22;12762;51.730;5.356;2023-04-15T08:51:11;19.30;57.00
24618;DHT22;12762;51.730;5.356;2023-04-15T08:53:45;19.30;57.00
24618;DHT22;12762;51.730;5.356;2023-04-15T08:56:14;19.30;56.20
24618;DHT22;12762;51.730;5.356;2023-04-15T08:58:45;19.30;56.50
24618;DHT22;12762;51.730;5.356;2023-04-15T09:01:13;19.40;56.50
24618;DHT22;12762;51.730;5.356;2023-04-15T09:03:49;19.50;56.80
24618;DHT22;12762;51.730;5.356;2023-04-15T09:06:17;19.60;55.90
24618;DHT22;12762;51.730;5.356;2023-04-15T09:08:44;19.60;55.70
24618;DHT22;12762;51.730;5.356;2023-04-15T09:11:10;19.70;55.70
24618;DHT22;12762;51.730;5.356;2023-04-15T09:13:38;19.80;55.70
24618;DHT22;12762;51.730;5.356;2023-04-15T09:16:06;19.80;55.60
24618;DHT22;12762;51.730;5.356;2023-04-15T09:18:35;19.80;55.40
24618;DHT22;12762;51.730;5.356;2023-04-15T09:21:07;19.80;55.10
24618;DHT22;12762;51.730;5.356;2023-04-15T09:23:37;19.70;54.60
24618;DHT22;12762;51.730;5.356;2023-04-15T09:26:04;19.60;54.60
24618;DHT22;12762;51.730;5.356;2023-04-15T09:28:32;19.50;54.10
24618;DHT22;12762;51.730;5.356;2023-04-15T09:31:00;19.40;54.50
24618;DHT22;12762;51.730;5.356;2023-04-15T09:33:28;19.30;54.30
24618;DHT22;12762;51.730;5.356;2023-04-15T09:36:02;19.20;54.00
24618;DHT22;12762;51.730;5.356;2023-04-15T09:38:31;19.10;54.70
24618;DHT22;12762;51.730;5.356;2023-04-15T09:40:58;19.10;55.40
24618;DHT22;12762;51.730;5.356;2023-04-15T09:43:40;19.10;54.80
24618;DHT22;12762;51.730;5.356;2023-04-15T09:46:07;19.10;54.30
24618;DHT22;12762;51.730;5.356;2023-04-15T09:48:34;19.00;54.00
24618;DHT22;12762;51.730;5.356;2023-04-15T09:51:01;18.90;53.90
24618;DHT22;12762;51.730;5.356;2023-04-15T09:53:28;18.80;53.90
24618;DHT22;12762;51.730;5.356;2023-04-15T09:55:58;18.80;54.00
24618;DHT22;12762;51.730;5.356;2023-04-15T09:58:32;18.90;54.30
24618;DHT22;12762;51.730;5.356;2023-04-15T10:01:03;18.90;54.20
24618;DHT22;12762;51.730;5.356;2023-04-15T10:03:33;19.10;54.40
24618;DHT22;12762;51.730;5.356;2023-04-15T10:06:02;19.10;54.20
24618;DHT22;12762;51.730;5.356;2023-04-15T10:08:32;19.20;54.10
24618;DHT22;12762;51.730;5.356;2023-04-15T10:11:03;19.20;53.80
24618;DHT22;12762;51.730;5.356;2023-04-15T10:13:31;19.10;53.90
24618;DHT22;12762;51.730;5.356;2023-04-15T10:16:10;19.10;53.80
24618;DHT22;12762;51.730;5.356;2023-04-15T10:18:42;19.10;53.60
24618;DHT22;12762;51.730;5.356;2023-04-15T10:21:09;19.10;53.50
24618;DHT22;12762;51.730;5.356;2023-04-15T10:23:37;19.00;52.40
24618;DHT22;12762;51.730;5.356;2023-04-15T10:26:04;18.90;52.70
24618;DHT22;12762;51.730;5.356;2023-04-15T10:28:31;18.80;52.50
24618;DHT22;12762;51.730;5.356;2023-04-15T10:30:58;18.70;52.30
24618;DHT22;12762;51.730;5.356;2023-04-15T10:33:29;18.60;52.20
24618;DHT22;12762;51.730;5.356;2023-04-15T10:35:56;18.50;52.20
24618;DHT22;12762;51.730;5.356;2023-04-15T10:38:43;18.50;52.10
24618;DHT22;12762;51.730;5.356;2023-04-15T10:43:48;18.40;52.10
24618;DHT22;12762;51.730;5.356;2023-04-15T10:46:21;18.30;51.80
24618;DHT22;12762;51.730;5.356;2023-04-15T10:48:51;18.30;51.90
24618;DHT22;12762;51.730;5.356;2023-04-15T10:51:30;18.30;51.80
24618;DHT22;12762;51.730;5.356;2023-04-15T10:54:00;18.40;52.30
24618;DHT22;12762;51.730;5.356;2023-04-15T10:56:28;18.50;52.10
24618;DHT22;12762;51.730;5.356;2023-04-15T10:58:58;18.60;52.30
24618;DHT22;12762;51.730;5.356;2023-04-15T11:04:58;19.00;52.20
24618;DHT22;12762;51.730;5.356;2023-04-15T11:12:56;19.00;52.10
24618;DHT22;12762;51.730;5.356;2023-04-15T11:15:37;19.00;52.20
24618;DHT22;12762;51.730;5.356;2023-04-15T11:18:21;19.00;52.30
24618;DHT22;12762;51.730;5.356;2023-04-15T11:20:53;18.90;52.10
24618;DHT22;12762;51.730;5.356;2023-04-15T11:23:37;18.80;52.10
24618;DHT22;12762;51.730;5.356;2023-04-15T11:26:06;18.80;52.50
24618;DHT22;12762;51.730;5.356;2023-04-15T11:28:36;18.80;52.60
24618;DHT22;12762;51.730;5.356;2023-04-15T11:31:06;18.80;52.80
24618;DHT22;12762;51.730;5.356;2023-04-15T11:33:34;18.80;52.60
24618;DHT22;12762;51.730;5.356;2023-04-15T11:36:02;18.90;52.80
24618;DHT22;12762;51.730;5.356;2023-04-15T11:38:29;18.90;52.70
24618;DHT22;12762;51.730;5.356;2023-04-15T11:40:57;18.90;52.50
24618;DHT22;12762;51.730;5.356;2023-04-15T11:43:24;18.80;52.20
24618;DHT22;12762;51.730;5.356;2023-04-15T11:45:55;18.70;52.10
24618;DHT22;12762;51.730;5.356;2023-04-15T11:48:33;18.60;52.00
24618;DHT22;12762;51.730;5.356;2023-04-15T11:51:05;18.60;52.20
24618;DHT22;12762;51.730;5.356;2023-04-15T11:53:45;18.60;52.10
24618;DHT22;12762;51.730;5.356;2023-04-15T11:58:57;18.70;52.30
24618;DHT22;12762;51.730;5.356;2023-04-15T12:01:35;18.90;52.10
24618;DHT22;12762;51.730;5.356;2023-04-15T12:04:10;19.00;51.90
24618;DHT22;12762;51.730;5.356;2023-04-15T12:06:37;19.00;51.60
24618;DHT22;12762;51.730;5.356;2023-04-15T12:09:12;18.80;51.40
24618;DHT22;12762;51.730;5.356;2023-04-15T12:11:50;18.60;51.50
24618;DHT22;12762;51.730;5.356;2023-04-15T12:14:26;18.40;51.60
24618;DHT22;12762;51.730;5.356;2023-04-15T12:17:01;18.20;51.90
24618;DHT22;12762;51.730;5.356;2023-04-15T12:19:34;18.20;52.30
24618;DHT22;12762;51.730;5.356;2023-04-15T12:22:09;18.30;52.30
24618;DHT22;12762;51.730;5.356;2023-04-15T12:24:37;18.30;51.90
24618;DHT22;12762;51.730;5.356;2023-04-15T12:27:07;18.40;51.80
24618;DHT22;12762;51.730;5.356;2023-04-15T12:29:36;18.50;51.80
24618;DHT22;12762;51.730;5.356;2023-04-15T12:32:07;18.50;51.40
24618;DHT22;12762;51.730;5.356;2023-04-15T12:34:37;18.50;51.50
24618;DHT22;12762;51.730;5.356;2023-04-15T12:37:06;18.60;51.60
24618;DHT22;12762;51.730;5.356;2023-04-15T12:39:36;18.60;51.10
24618;DHT22;12762;51.730;5.356;2023-04-15T12:42:04;18.70;51.10
24618;DHT22;12762;51.730;5.356;2023-04-15T12:44:32;18.70;50.70
24618;DHT22;12762;51.730;5.356;2023-04-15T12:46:58;18.70;50.70
24618;DHT22;12762;51.730;5.356;2023-04-15T12:49:26;18.70;50.50
24618;DHT22;12762;51.730;5.356;2023-04-15T12:51:56;18.60;50.70
24618;DHT22;12762;51.730;5.356;2023-04-15T12:54:28;18.50;51.00
24618;DHT22;12762;51.730;5.356;2023-04-15T12:56:59;18.50;51.50
24618;DHT22;12762;51.730;5.356;2023-04-15T12:59:26;18.50;51.30
24618;DHT22;12762;51.730;5.356;2023-04-15T13:01:56;18.50;51.50
24618;DHT22;12762;51.730;5.356;2023-04-15T13:04:25;18.50;51.70
24618;DHT22;12762;51.730;5.356;2023-04-15T13:06:56;18.50;51.80
24618;DHT22;12762;51.730;5.356;2023-04-15T13:09:26;18.60;51.70
24618;DHT22;12762;51.730;5.356;2023-04-15T13:11:53;18.60;51.50
24618;DHT22;12762;51.730;5.356;2023-04-15T13:14:20;18.70;51.60
24618;DHT22;12762;51.730;5.356;2023-04-15T13:16:50;18.90;51.60
24618;DHT22;12762;51.730;5.356;2023-04-15T13:19:16;18.90;51.20
24618;DHT22;12762;51.730;5.356;2023-04-15T13:21:49;18.90;51.30
24618;DHT22;12762;51.730;5.356;2023-04-15T13:24:16;18.90;51.00
24618;DHT22;12762;51.730;5.356;2023-04-15T13:26:43;18.90;50.80
24618;DHT22;12762;51.730;5.356;2023-04-15T13:29:10;18.90;50.30
24618;DHT22;12762;51.730;5.356;2023-04-15T13:31:37;18.80;50.70
24618;DHT22;12762;51.730;5.356;2023-04-15T13:34:04;18.80;50.60
24618;DHT22;12762;51.730;5.356;2023-04-15T13:36:32;18.80;50.70
24618;DHT22;12762;51.730;5.356;2023-04-15T13:38:59;18.70;50.80
24618;DHT22;12762;51.730;5.356;2023-04-15T13:41:26;18.80;51.10
24618;DHT22;12762;51.730;5.356;2023-04-15T13:43:53;18.80;50.90
24618;DHT22;12762;51.730;5.356;2023-04-15T13:46:19;18.80;50.50
24618;DHT22;12762;51.730;5.356;2023-04-15T13:48:46;18.80;50.90
24618;DHT22;12762;51.730;5.356;2023-04-15T13:51:13;18.80;50.80
24618;DHT22;12762;51.730;5.356;2023-04-15T13:53:40;18.70;50.80
24618;DHT22;12762;51.730;5.356;2023-04-15T13:56:07;18.70;50.90
24618;DHT22;12762;51.730;5.356;2023-04-15T13:58:37;18.50;50.90
24618;DHT22;12762;51.730;5.356;2023-04-15T14:01:04;18.30;50.90
24618;DHT22;12762;51.730;5.356;2023-04-15T14:03:36;18.20;51.30
24618;DHT22;12762;51.730;5.356;2023-04-15T14:06:04;18.10;51.30
24618;DHT22;12762;51.730;5.356;2023-04-15T14:08:32;18.10;51.50
24618;DHT22;12762;51.730;5.356;2023-04-15T14:10:59;18.10;51.40
24618;DHT22;12762;51.730;5.356;2023-04-15T14:13:26;18.10;50.70
24618;DHT22;12762;51.730;5.356;2023-04-15T14:15:53;18.10;51.30
24618;DHT22;12762;51.730;5.356;2023-04-15T14:18:20;18.00;51.30
24618;DHT22;12762;51.730;5.356;2023-04-15T14:20:47;18.00;51.20
24618;DHT22;12762;51.730;5.356;2023-04-15T14:23:14;17.90;51.10
24618;DHT22;12762;51.730;5.356;2023-04-15T14:25:40;18.00;49.60
24618;DHT22;12762;51.730;5.356;2023-04-15T14:28:07;17.80;50.50
24618;DHT22;12762;51.730;5.356;2023-04-15T14:30:34;17.80;51.00
24618;DHT22;12762;51.730;5.356;2023-04-15T14:33:01;17.80;50.90
24618;DHT22;12762;51.730;5.356;2023-04-15T14:35:29;17.70;51.30
24618;DHT22;12762;51.730;5.356;2023-04-15T14:37:56;17.60;51.50
24618;DHT22;12762;51.730;5.356;2023-04-15T14:40:23;17.40;51.40
24618;DHT22;12762;51.730;5.356;2023-04-15T14:42:50;17.30;51.60
24618;DHT22;12762;51.730;5.356;2023-04-15T14:45:17;17.10;51.80
24618;DHT22;12762;51.730;5.356;2023-04-15T14:47:44;17.00;51.90
24618;DHT22;12762;51.730;5.356;2023-04-15T14:50:11;16.90;52.10
24618;DHT22;12762;51.730;5.356;2023-04-15T14:52:38;16.90;52.30
24618;DHT22;12762;51.730;5.356;2023-04-15T14:55:05;16.90;52.20
24618;DHT22;12762;51.730;5.356;2023-04-15T14:57:32;17.00;52.20
24618;DHT22;12762;51.730;5.356;2023-04-15T14:59:59;16.80;52.10
24618;DHT22;12762;51.730;5.356;2023-04-15T15:02:26;16.90;52.40
24618;DHT22;12762;51.730;5.356;2023-04-15T15:05:05;16.80;52.10
24618;DHT22;12762;51.730;5.356;2023-04-15T15:07:32;16.80;52.50
24618;DHT22;12762;51.730;5.356;2023-04-15T15:09:59;16.70;52.50
24618;DHT22;12762;51.730;5.356;2023-04-15T15:12:25;16.50;52.40
24618;DHT22;12762;51.730;5.356;2023-04-15T15:14:54;16.40;52.50
24618;DHT22;12762;51.730;5.356;2023-04-15T15:17:21;16.40;52.70
24618;DHT22;12762;51.730;5.356;2023-04-15T15:19:48;16.20;52.70
24618;DHT22;12762;51.730;5.356;2023-04-15T15:22:15;16.40;52.80
24618;DHT22;12762;51.730;5.356;2023-04-15T15:24:42;16.30;53.10
24618;DHT22;12762;51.730;5.356;2023-04-15T15:27:09;16.10;53.10
24618;DHT22;12762;51.730;5.356;2023-04-15T15:29:36;16.10;53.50
24618;DHT22;12762;51.730;5.356;2023-04-15T15:32:03;16.00;53.70
24618;DHT22;12762;51.730;5.356;2023-04-15T15:34:30;15.90;54.00
24618;DHT22;12762;51.730;5.356;2023-04-15T15:36:57;15.80;54.10
24618;DHT22;12762;51.730;5.356;2023-04-15T15:39:24;15.70;54.30
24618;DHT22;12762;51.730;5.356;2023-04-15T15:41:51;15.50;54.50
24618;DHT22;12762;51.730;5.356;2023-04-15T15:44:18;15.40;54.80
24618;DHT22;12762;51.730;5.356;2023-04-15T15:46:45;15.30;55.00
24618;DHT22;12762;51.730;5.356;2023-04-15T15:49:11;15.20;55.00
24618;DHT22;12762;51.730;5.356;2023-04-15T15:51:38;15.00;55.30
24618;DHT22;12762;51.730;5.356;2023-04-15T15:54:05;14.90;55.20
24618;DHT22;12762;51.730;5.356;2023-04-15T15:56:32;14.80;55.10
24618;DHT22;12762;51.730;5.356;2023-04-15T15:59:00;14.70;55.20